Time;durP1;ratioP1;P1;durP2;ratioP2;P2;SDS_P1;SDS_P2;PMS_P1;PMS_P2;Temp;Humidity;BMP_temperature;BMP_pressure;BME280_temperature;BME280_humidity;BME280_pressure;Samples;Min_cycle;Max_cycle;Signal;HPM_P1;HPM_P2
2023/06/03 00:00:14;;;;;;;2.10;1.50;;;14.10;86.80;;;;;;5063850;28;20206;-78
2023/06/03 00:02:41;;;;;;;1.93;1.40;;;14.20;86.80;;;;;;5056040;28;20326;-78
2023/06/03 00:05:09;;;;;;;1.70;1.30;;;14.20;86.70;;;;;;5067601;28;20661;-80
2023/06/03 00:07:36;;;;;;;2.60;1.43;;;14.10;86.70;;;;;;5068046;28;20211;-81
2023/06/03 00:10:05;;;;;;;1.40;1.30;;;14.10;86.70;;;;;;5067607;28;20294;-77
2023/06/03 00:12:32;;;;;;;1.33;0.77;;;14.10;86.60;;;;;;5067454;28;20250;-77
2023/06/03 00:14:58;;;;;;;2.10;1.37;;;14.00;86.60;;;;;;5067441;28;20607;-77
2023/06/03 00:17:27;;;;;;;1.30;1.20;;;14.10;86.50;;;;;;5063277;28;20551;-77
2023/06/03 00:19:54;;;;;;;1.87;1.10;;;14.00;86.80;;;;;;5053900;28;20696;-78
2023/06/03 00:22:22;;;;;;;2.00;1.30;;;14.00;86.90;;;;;;5067261;28;20292;-77
2023/06/03 00:24:49;;;;;;;3.43;1.40;;;13.90;87.10;;;;;;5075839;28;20211;-78
2023/06/03 00:27:17;;;;;;;1.20;1.10;;;13.90;87.50;;;;;;5067109;28;20326;-77
2023/06/03 00:29:44;;;;;;;1.27;1.17;;;13.80;87.50;;;;;;5066923;28;20294;-78
2023/06/03 00:32:11;;;;;;;1.17;1.07;;;13.80;87.60;;;;;;5066438;28;20231;-77
2023/06/03 00:34:38;;;;;;;1.17;1.00;;;13.70;87.80;;;;;;5066664;28;20298;-77
2023/06/03 00:37:05;;;;;;;1.47;1.30;;;13.70;87.90;;;;;;5066834;28;20214;-77
2023/06/03 00:39:32;;;;;;;1.90;1.30;;;13.70;88.00;;;;;;5066548;28;20761;-77
2023/06/03 00:41:59;;;;;;;3.37;1.10;;;13.70;87.90;;;;;;5066311;28;20800;-78
2023/06/03 00:44:27;;;;;;;1.50;1.00;;;13.70;87.90;;;;;;5066796;28;20229;-77
2023/06/03 00:46:54;;;;;;;1.00;1.00;;;13.60;87.80;;;;;;5064783;28;20833;-78
2023/06/03 00:49:21;;;;;;;1.30;1.20;;;13.60;88.00;;;;;;5066559;28;20606;-79
2023/06/03 00:51:49;;;;;;;1.30;1.20;;;13.60;88.00;;;;;;5066897;28;20322;-79
2023/06/03 00:54:20;;;;;;;3.17;1.40;;;13.60;87.90;;;;;;5066993;28;20211;-80
2023/06/03 00:56:48;;;;;;;1.47;1.30;;;13.60;87.60;;;;;;5066714;28;20302;-79
2023/06/03 00:59:16;;;;;;;1.33;1.10;;;13.50;87.70;;;;;;5059555;28;20214;-79
2023/06/03 01:01:45;;;;;;;1.37;1.17;;;13.40;88.00;;;;;;5066394;28;20294;-79
2023/06/03 01:04:16;;;;;;;1.10;1.00;;;13.50;88.20;;;;;;5066743;28;20290;-77
2023/06/03 01:06:54;;;;;;;3.23;1.40;;;13.50;88.10;;;;;;5066647;28;20292;-77
2023/06/03 01:09:30;;;;;;;3.47;1.40;;;13.60;88.20;;;;;;5066424;28;20282;-77
2023/06/03 01:12:04;;;;;;;3.13;1.40;;;13.50;88.20;;;;;;5066052;28;20323;-77
2023/06/03 01:14:37;;;;;;;1.70;1.20;;;13.50;88.10;;;;;;5066242;28;20218;-77
2023/06/03 01:17:09;;;;;;;0.97;0.80;;;13.40;88.20;;;;;;5065744;28;20871;-76
2023/06/03 01:19:47;;;;;;;1.17;1.03;;;13.20;88.70;;;;;;5065866;28;20203;-76
2023/06/03 01:22:17;;;;;;;2.50;1.10;;;13.10;89.20;;;;;;5065671;28;20279;-77
2023/06/03 01:24:46;;;;;;;2.27;1.30;;;13.10;89.10;;;;;;5064223;28;20218;-78
2023/06/03 01:27:13;;;;;;;2.43;1.40;;;12.90;89.40;;;;;;5046475;28;20295;-79
2023/06/03 01:29:42;;;;;;;1.20;1.10;;;13.00;89.60;;;;;;5053644;28;20302;-78
2023/06/03 01:32:12;;;;;;;1.97;1.50;;;12.90;89.70;;;;;;5066193;28;20260;-78
2023/06/03 01:34:41;;;;;;;1.70;1.60;;;13.00;89.90;;;;;;5051578;28;20211;-78
2023/06/03 01:37:09;;;;;;;1.90;1.30;;;13.00;89.70;;;;;;5046669;28;20244;-77
2023/06/03 01:39:37;;;;;;;1.13;1.03;;;12.90;90.10;;;;;;5046626;28;20204;-79
2023/06/03 01:42:06;;;;;;;4.17;1.47;;;13.10;89.50;;;;;;5046181;28;20326;-78
2023/06/03 01:44:33;;;;;;;1.10;1.10;;;13.10;89.40;;;;;;5045474;28;20299;-79
2023/06/03 01:47:01;;;;;;;2.10;1.40;;;13.10;89.30;;;;;;5050073;28;20214;-78
2023/06/03 01:49:31;;;;;;;1.20;1.10;;;13.10;89.30;;;;;;5065538;28;20299;-78
2023/06/03 01:51:58;;;;;;;1.20;1.10;;;13.10;89.30;;;;;;5063858;28;20327;-81
2023/06/03 01:54:25;;;;;;;1.17;1.07;;;13.00;89.20;;;;;;5065765;28;20246;-79
2023/06/03 01:56:52;;;;;;;2.23;1.30;;;13.00;89.40;;;;;;5065616;28;20217;-79
2023/06/03 01:59:23;;;;;;;1.90;1.17;;;13.00;89.40;;;;;;5070811;28;20353;-79
2023/06/03 02:01:50;;;;;;;1.47;1.37;;;12.80;89.50;;;;;;5085983;28;20205;-79
2023/06/03 02:04:17;;;;;;;1.30;1.20;;;12.90;89.60;;;;;;5085806;28;20302;-80
2023/06/03 02:06:49;;;;;;;1.47;1.27;;;12.80;89.60;;;;;;5085460;28;20210;-80
2023/06/03 02:09:15;;;;;;;2.13;1.20;;;12.60;89.90;;;;;;5085721;28;20195;-80
2023/06/03 02:11:43;;;;;;;1.93;1.10;;;12.70;90.00;;;;;;5085539;28;20317;-80
2023/06/03 02:14:12;;;;;;;1.30;1.10;;;12.70;90.00;;;;;;5086071;28;20211;-80
2023/06/03 02:16:41;;;;;;;1.40;1.30;;;12.70;89.80;;;;;;5084446;28;20298;-81
2023/06/03 02:19:14;;;;;;;1.30;1.20;;;12.60;90.10;;;;;;5048960;28;20218;-80
2023/06/03 02:21:42;;;;;;;3.57;1.17;;;12.60;90.10;;;;;;5063149;28;20262;-82
2023/06/03 02:24:10;;;;;;;1.83;1.20;;;12.60;90.10;;;;;;5052133;28;20207;-80
2023/06/03 02:26:38;;;;;;;1.00;1.00;;;12.50;90.20;;;;;;5046173;28;20888;-81
2023/06/03 02:29:08;;;;;;;2.57;1.10;;;12.50;90.10;;;;;;5048837;28;20810;-80
2023/06/03 02:31:34;;;;;;;0.87;0.87;;;12.50;90.20;;;;;;5065523;28;20612;-80
2023/06/03 02:34:03;;;;;;;1.10;1.10;;;12.50;90.00;;;;;;5065610;28;20859;-80
2023/06/03 02:36:30;;;;;;;0.90;0.90;;;12.50;90.20;;;;;;5065981;28;20212;-81
2023/06/03 02:38:56;;;;;;;3.37;0.93;;;12.50;90.50;;;;;;5065614;28;20233;-80
2023/06/03 02:41:23;;;;;;;2.43;1.10;;;12.30;90.20;;;;;;5065661;28;20583;-80
2023/06/03 02:43:50;;;;;;;1.23;1.13;;;12.30;90.20;;;;;;5061397;28;20303;-81
2023/06/03 02:46:17;;;;;;;1.10;0.97;;;12.40;90.30;;;;;;5066008;28;20211;-81
2023/06/03 02:48:44;;;;;;;3.37;1.40;;;12.40;90.30;;;;;;5065395;28;20302;-81
2023/06/03 02:51:12;;;;;;;0.77;0.77;;;12.40;90.30;;;;;;5065556;28;20211;-80
2023/06/03 02:53:39;;;;;;;0.90;0.90;;;12.20;90.20;;;;;;5065476;28;20335;-78
2023/06/03 02:56:06;;;;;;;3.03;1.00;;;12.20;90.20;;;;;;5065293;28;20311;-78
2023/06/03 02:58:33;;;;;;;1.20;1.10;;;12.30;90.30;;;;;;5065499;28;20211;-78
2023/06/03 03:01:00;;;;;;;1.80;1.07;;;12.40;90.20;;;;;;5065492;28;20302;-78
2023/06/03 03:03:27;;;;;;;1.10;1.00;;;12.40;90.20;;;;;;5065505;28;20233;-78
2023/06/03 03:05:54;;;;;;;3.90;1.10;;;12.30;90.20;;;;;;5065478;28;20592;-78
2023/06/03 03:08:23;;;;;;;1.10;1.10;;;12.20;90.10;;;;;;5064584;28;20204;-79
2023/06/03 03:10:50;;;;;;;1.83;1.00;;;12.10;90.30;;;;;;5049094;28;20235;-78
2023/06/03 03:13:17;;;;;;;1.07;0.90;;;12.10;90.30;;;;;;5059615;28;20861;-80
2023/06/03 03:15:44;;;;;;;4.20;1.40;;;12.20;90.20;;;;;;5064442;28;20741;-80
2023/06/03 03:18:11;;;;;;;1.20;1.10;;;12.20;90.20;;;;;;5065048;28;20409;-81
2023/06/03 03:20:38;;;;;;;2.13;0.70;;;12.20;90.30;;;;;;5067439;28;20260;-80
2023/06/03 03:23:06;;;;;;;1.10;1.00;;;12.10;90.30;;;;;;5068376;28;20294;-79
2023/06/03 03:25:34;;;;;;;2.67;1.10;;;12.10;90.30;;;;;;5068464;28;20264;-80
2023/06/03 03:28:01;;;;;;;0.90;0.90;;;12.10;90.20;;;;;;5068625;28;20999;-79
2023/06/03 03:30:28;;;;;;;1.00;0.90;;;12.00;90.20;;;;;;5068548;28;20214;-79
2023/06/03 03:32:58;;;;;;;1.00;0.90;;;11.90;90.40;;;;;;5068048;28;20334;-79
2023/06/03 03:35:26;;;;;;;0.90;0.90;;;12.00;90.30;;;;;;5068348;28;20717;-79
2023/06/03 03:38:02;;;;;;;1.13;0.93;;;12.10;90.20;;;;;;5067362;28;20203;-78
2023/06/03 03:40:31;;;;;;;0.70;0.70;;;12.10;90.20;;;;;;5068197;28;20195;-81
2023/06/03 03:42:59;;;;;;;1.43;1.10;;;11.90;90.00;;;;;;5068201;28;20267;-81
2023/06/03 03:45:29;;;;;;;2.83;1.17;;;11.90;90.20;;;;;;5068565;28;20353;-80
2023/06/03 03:48:01;;;;;;;1.30;1.07;;;11.90;90.20;;;;;;5068623;28;20306;-79
2023/06/03 03:50:47;;;;;;;1.00;1.00;;;11.80;90.40;;;;;;5068275;28;20206;-79
2023/06/03 03:53:15;;;;;;;0.87;0.87;;;11.90;90.40;;;;;;5067690;28;20340;-81
2023/06/03 03:55:44;;;;;;;1.03;0.97;;;11.90;90.40;;;;;;5067767;28;20297;-82
2023/06/03 03:58:36;;;;;;;1.23;1.13;;;11.90;90.40;;;;;;5067980;28;20210;-80
2023/06/03 04:01:09;;;;;;;1.87;0.97;;;11.80;90.50;;;;;;5068253;28;20196;-78
2023/06/03 04:03:40;;;;;;;0.73;0.73;;;12.00;90.40;;;;;;5063479;28;20192;-78
2023/06/03 04:06:07;;;;;;;1.47;0.87;;;12.00;90.30;;;;;;5048005;28;20192;-81
2023/06/03 04:08:39;;;;;;;1.10;1.00;;;12.00;90.40;;;;;;5052002;28;20287;-79
2023/06/03 04:11:08;;;;;;;1.70;1.20;;;12.00;90.40;;;;;;5067767;28;20257;-80
2023/06/03 04:13:40;;;;;;;1.30;1.13;;;11.80;90.50;;;;;;5067606;28;20286;-80
2023/06/03 04:16:11;;;;;;;0.90;0.90;;;11.70;90.70;;;;;;5067619;28;20195;-79
2023/06/03 04:18:40;;;;;;;0.83;0.83;;;11.60;90.60;;;;;;5067481;28;20249;-79
2023/06/03 04:21:12;;;;;;;1.00;0.97;;;11.70;90.80;;;;;;5067665;28;20588;-79
2023/06/03 04:23:39;;;;;;;1.30;1.10;;;11.70;90.90;;;;;;5067425;28;20215;-81
2023/06/03 04:26:07;;;;;;;1.50;1.00;;;11.70;91.10;;;;;;5067551;28;20249;-81
2023/06/03 04:28:33;;;;;;;1.57;1.00;;;11.50;91.00;;;;;;5067067;28;20211;-81
2023/06/03 04:31:02;;;;;;;2.57;1.17;;;11.50;91.30;;;;;;5066136;28;20211;-81
2023/06/03 04:33:28;;;;;;;18.73;2.00;;;11.60;91.30;;;;;;5065807;28;20338;-81
2023/06/03 04:35:56;;;;;;;5.97;1.60;;;11.60;91.20;;;;;;5067408;28;20234;-81
2023/06/03 04:38:23;;;;;;;2.70;1.10;;;11.80;91.40;;;;;;5067475;28;20713;-81
2023/06/03 04:40:49;;;;;;;1.13;1.00;;;11.80;91.30;;;;;;5066882;28;20215;-81
2023/06/03 04:43:18;;;;;;;1.20;1.10;;;11.90;91.30;;;;;;5067090;28;20242;-81
2023/06/03 04:45:45;;;;;;;1.80;1.00;;;11.80;91.30;;;;;;5066818;28;20576;-81
2023/06/03 04:48:13;;;;;;;2.27;1.23;;;11.90;91.50;;;;;;5064524;28;20674;-81
2023/06/03 04:50:44;;;;;;;1.53;1.07;;;11.90;91.60;;;;;;5047038;28;20257;-81
2023/06/03 04:53:12;;;;;;;1.80;1.37;;;11.90;91.30;;;;;;5059186;28;20219;-81
2023/06/03 04:55:42;;;;;;;1.30;0.80;;;12.10;91.40;;;;;;5066430;28;20772;-81
2023/06/03 04:58:09;;;;;;;3.13;1.00;;;12.00;91.50;;;;;;5067026;28;20214;-80
2023/06/03 05:00:37;;;;;;;104.40;6.67;;;12.00;91.50;;;;;;5066143;28;20283;-79
2023/06/03 05:03:08;;;;;;;6.80;1.87;;;12.10;91.40;;;;;;5066747;28;20945;-79
2023/06/03 05:05:41;;;;;;;2.80;1.10;;;12.10;91.40;;;;;;5067019;28;20286;-80
2023/06/03 05:08:09;;;;;;;2.70;1.10;;;12.20;91.50;;;;;;5066517;28;20261;-78
2023/06/03 05:10:36;;;;;;;1.30;1.20;;;12.20;91.50;;;;;;5056947;28;20211;-78
2023/06/03 05:13:03;;;;;;;1.40;1.00;;;12.20;91.80;;;;;;5047175;28;20239;-80
2023/06/03 05:15:33;;;;;;;2.93;1.33;;;12.30;91.40;;;;;;5046597;28;20219;-79
2023/06/03 05:18:00;;;;;;;2.53;1.10;;;12.10;91.20;;;;;;5046469;28;20204;-78
2023/06/03 05:20:27;;;;;;;1.90;1.10;;;12.20;91.20;;;;;;5046133;28;20323;-79
2023/06/03 05:22:55;;;;;;;0.97;0.97;;;12.30;91.40;;;;;;5048931;28;20717;-79
2023/06/03 05:25:22;;;;;;;1.10;1.00;;;12.30;91.30;;;;;;5065857;28;20207;-78
2023/06/03 05:27:49;;;;;;;3.47;1.67;;;12.30;91.20;;;;;;5065014;28;20770;-76
2023/06/03 05:30:19;;;;;;;1.67;1.30;;;12.20;91.40;;;;;;5061241;28;20219;-80
2023/06/03 05:32:46;;;;;;;1.97;1.00;;;12.40;91.70;;;;;;5056944;28;20266;-79
2023/06/03 05:35:13;;;;;;;23.23;2.47;;;12.50;92.00;;;;;;5066651;28;20207;-81
2023/06/03 05:37:39;;;;;;;3.13;1.40;;;12.60;91.90;;;;;;5065895;28;20830;-79
2023/06/03 05:40:09;;;;;;;1.63;1.07;;;12.70;91.70;;;;;;5065587;28;20952;-79
2023/06/03 05:42:36;;;;;;;3.87;1.40;;;12.80;91.60;;;;;;5063700;28;20772;-79
2023/06/03 05:45:03;;;;;;;2.40;1.33;;;12.90;91.50;;;;;;5064558;28;20280;-79
2023/06/03 05:47:30;;;;;;;1.73;1.60;;;13.00;91.50;;;;;;5066270;28;20211;-81
2023/06/03 05:49:57;;;;;;;2.60;1.40;;;12.90;91.20;;;;;;5064870;28;20209;-79
2023/06/03 05:52:24;;;;;;;1.37;1.27;;;13.00;91.10;;;;;;5064329;28;20573;-79
2023/06/03 05:54:51;;;;;;;1.40;1.33;;;13.10;91.00;;;;;;5058301;28;20302;-79
2023/06/03 05:57:19;;;;;;;2.27;1.60;;;13.00;90.90;;;;;;5044295;28;20204;-80
2023/06/03 05:59:47;;;;;;;5.03;1.20;;;13.10;90.70;;;;;;5052506;28;20852;-80
2023/06/03 06:02:14;;;;;;;2.67;1.70;;;13.10;91.00;;;;;;5063995;28;20284;-79
2023/06/03 06:04:41;;;;;;;6.93;1.27;;;13.20;90.80;;;;;;5063980;28;20334;-80
2023/06/03 06:07:07;;;;;;;1.87;1.27;;;13.20;90.10;;;;;;5064167;28;20199;-79
2023/06/03 06:09:35;;;;;;;3.43;1.53;;;13.20;90.00;;;;;;5063892;28;20204;-79
2023/06/03 06:12:01;;;;;;;4.60;1.40;;;13.30;90.10;;;;;;5064197;28;20214;-80
2023/06/03 06:14:30;;;;;;;1.40;1.27;;;13.40;89.70;;;;;;5064007;28;20333;-79
2023/06/03 06:16:57;;;;;;;3.40;1.40;;;13.40;88.30;;;;;;5063833;28;20654;-79
2023/06/03 06:19:24;;;;;;;3.10;1.53;;;13.40;88.40;;;;;;5063572;28;20319;-80
2023/06/03 06:21:51;;;;;;;3.80;1.33;;;13.50;88.10;;;;;;5063616;28;20515;-81
2023/06/03 06:24:18;;;;;;;3.23;1.47;;;13.50;88.30;;;;;;5053887;28;20200;-80
2023/06/03 06:26:45;;;;;;;3.97;1.30;;;13.50;89.00;;;;;;5061644;28;20203;-80
2023/06/03 06:29:12;;;;;;;5.57;1.60;;;13.60;88.60;;;;;;5064051;28;20581;-80
2023/06/03 06:31:40;;;;;;;6.60;1.67;;;13.70;89.20;;;;;;5063553;28;20673;-80
2023/06/03 06:34:10;;;;;;;2.27;1.30;;;13.70;89.10;;;;;;5064036;28;20238;-79
2023/06/03 06:36:43;;;;;;;5.17;1.20;;;13.70;89.00;;;;;;5059549;28;20211;-79
2023/06/03 06:39:49;;;;;;;2.33;1.30;;;13.80;88.60;;;;;;5060368;28;20587;-80
2023/06/03 06:42:24;;;;;;;2.70;1.50;;;13.90;88.20;;;;;;5045382;28;20266;-80
2023/06/03 06:44:52;;;;;;;1.70;1.23;;;13.90;88.00;;;;;;5063972;28;20286;-80
2023/06/03 06:47:23;;;;;;;2.10;1.30;;;14.00;87.80;;;;;;5064184;28;20210;-80
2023/06/03 06:49:50;;;;;;;3.80;1.20;;;14.00;88.60;;;;;;5061389;28;20200;-81
2023/06/03 06:52:19;;;;;;;2.50;1.60;;;14.00;89.00;;;;;;5048045;28;20223;-80
2023/06/03 06:54:46;;;;;;;1.77;1.37;;;14.10;88.40;;;;;;5062007;28;20246;-79
2023/06/03 06:57:20;;;;;;;1.43;1.13;;;14.20;88.60;;;;;;5054754;28;20716;-80
2023/06/03 06:59:47;;;;;;;2.87;1.67;;;14.20;87.40;;;;;;5071188;28;20203;-80
2023/06/03 07:02:14;;;;;;;4.13;1.70;;;14.30;87.60;;;;;;5055403;28;20211;-79
2023/06/03 07:04:42;;;;;;;2.50;1.43;;;14.40;87.50;;;;;;5047231;28;20279;-79
2023/06/03 07:07:09;;;;;;;4.03;1.67;;;14.40;87.30;;;;;;5066787;28;20318;-80
2023/06/03 07:09:36;;;;;;;5.40;1.63;;;14.40;86.90;;;;;;5067696;28;20323;-82
2023/06/03 07:12:03;;;;;;;2.57;1.33;;;14.40;86.90;;;;;;5053218;28;20295;-80
2023/06/03 07:14:30;;;;;;;3.33;1.70;;;14.40;86.30;;;;;;5046866;28;21037;-79
2023/06/03 07:16:57;;;;;;;1.83;1.63;;;14.50;86.40;;;;;;5062377;28;20558;-79
2023/06/03 07:19:27;;;;;;;1.73;1.43;;;14.50;86.60;;;;;;5066989;28;21095;-79
2023/06/03 07:21:55;;;;;;;2.60;1.43;;;14.60;87.10;;;;;;5066902;28;20295;-79
2023/06/03 07:24:22;;;;;;;3.10;1.70;;;14.60;86.30;;;;;;5062030;28;20226;-80
2023/06/03 07:26:49;;;;;;;1.40;1.23;;;14.60;87.00;;;;;;5066490;28;20207;-79
2023/06/03 07:29:16;;;;;;;2.33;1.40;;;14.70;87.00;;;;;;5067182;28;20261;-80
2023/06/03 07:31:43;;;;;;;5.67;1.40;;;14.70;86.70;;;;;;5066570;28;20226;-79
2023/06/03 07:34:10;;;;;;;3.60;1.80;;;14.80;87.50;;;;;;5066798;28;20285;-79
2023/06/03 07:36:37;;;;;;;27.70;2.87;;;14.90;87.20;;;;;;5066414;28;20217;-80
2023/06/03 07:39:06;;;;;;;7.50;2.10;;;14.90;86.60;;;;;;5066509;28;20221;-76
2023/06/03 07:41:41;;;;;;;1.60;1.33;;;15.00;86.60;;;;;;5065028;28;20678;-77
2023/06/03 07:44:11;;;;;;;2.90;1.40;;;15.00;86.70;;;;;;5060815;28;20259;-77
2023/06/03 07:46:43;;;;;;;9.73;2.77;;;15.10;87.20;;;;;;5066557;28;20306;-77
2023/06/03 07:49:12;;;;;;;2.43;1.90;;;15.10;86.20;;;;;;5066876;28;20241;-77
2023/06/03 07:51:44;;;;;;;2.47;1.87;;;15.20;85.80;;;;;;5065960;28;20290;-77
2023/06/03 07:54:12;;;;;;;2.07;1.20;;;15.20;85.60;;;;;;5065683;28;20344;-77
2023/06/03 07:56:40;;;;;;;5.37;1.70;;;15.30;86.00;;;;;;5065693;28;20830;-77
2023/06/03 07:59:10;;;;;;;1.97;1.33;;;15.30;85.40;;;;;;5065089;28;20212;-77
2023/06/03 08:01:37;;;;;;;5.43;1.43;;;15.30;85.00;;;;;;5067238;28;20288;-77
2023/06/03 08:04:06;;;;;;;3.20;1.20;;;15.40;85.30;;;;;;5066971;28;20211;-77
2023/06/03 08:06:36;;;;;;;5.80;1.40;;;15.50;85.20;;;;;;5066251;28;20774;-77
2023/06/03 08:09:03;;;;;;;2.20;1.90;;;15.50;84.80;;;;;;5066835;28;20556;-76
2023/06/03 08:11:34;;;;;;;2.30;1.20;;;15.70;84.30;;;;;;5058106;28;20269;-76
2023/06/03 08:14:01;;;;;;;2.97;1.20;;;15.70;83.00;;;;;;5061974;28;20223;-77
2023/06/03 08:16:28;;;;;;;3.07;1.37;;;15.80;82.00;;;;;;5067231;28;20297;-76
2023/06/03 08:18:55;;;;;;;4.50;1.53;;;15.80;82.00;;;;;;5067060;28;20299;-76
2023/06/03 08:21:28;;;;;;;5.23;1.80;;;15.80;83.20;;;;;;5067232;28;20229;-77
2023/06/03 08:23:55;;;;;;;3.07;1.60;;;15.90;82.80;;;;;;5066688;28;20204;-77
2023/06/03 08:26:22;;;;;;;2.53;1.30;;;16.00;84.00;;;;;;5066543;28;20665;-76
2023/06/03 08:28:50;;;;;;;2.83;1.30;;;16.10;82.80;;;;;;5066176;28;20725;-76
2023/06/03 08:31:17;;;;;;;2.93;1.47;;;16.10;82.60;;;;;;5066800;28;20230;-76
2023/06/03 08:33:44;;;;;;;2.53;1.20;;;16.10;82.70;;;;;;5049103;28;20223;-76
2023/06/03 08:36:11;;;;;;;3.50;1.50;;;16.10;82.50;;;;;;5046547;28;20678;-76
2023/06/03 08:38:40;;;;;;;3.33;1.37;;;16.20;81.80;;;;;;5056779;28;20286;-76
2023/06/03 08:41:07;;;;;;;2.57;1.30;;;16.20;81.50;;;;;;5065929;28;20195;-76
2023/06/03 08:43:39;;;;;;;2.40;1.20;;;16.30;81.00;;;;;;5066571;28;20199;-77
2023/06/03 08:46:18;;;;;;;1.47;1.37;;;16.30;79.40;;;;;;5066583;28;20223;-76
2023/06/03 08:48:51;;;;;;;1.13;1.03;;;16.40;78.90;;;;;;5066087;28;20250;-76
2023/06/03 08:51:22;;;;;;;2.50;1.23;;;16.40;79.00;;;;;;5075052;28;20212;-76
2023/06/03 08:53:50;;;;;;;1.77;1.20;;;16.50;79.70;;;;;;5066337;28;20503;-76
2023/06/03 08:56:18;;;;;;;2.20;1.17;;;16.60;79.40;;;;;;5066619;28;20210;-77
2023/06/03 08:58:49;;;;;;;4.60;1.63;;;16.70;79.70;;;;;;5065777;28;20196;-77
2023/06/03 09:01:19;;;;;;;10.30;2.10;;;16.80;79.70;;;;;;5064939;28;20261;-77
2023/06/03 09:03:49;;;;;;;2.17;1.20;;;16.80;79.90;;;;;;5065908;28;20295;-77
2023/06/03 09:06:17;;;;;;;5.43;1.63;;;16.90;79.90;;;;;;5066010;28;20250;-76
2023/06/03 09:08:45;;;;;;;35.33;3.10;;;16.90;80.80;;;;;;5065594;28;20249;-77
2023/06/03 09:11:13;;;;;;;11.80;2.33;;;17.00;77.40;;;;;;5065323;28;20253;-76
2023/06/03 09:13:41;;;;;;;2.53;1.20;;;17.10;78.00;;;;;;5065758;28;20199;-76
2023/06/03 09:16:09;;;;;;;1.47;1.27;;;17.10;77.50;;;;;;5065860;28;20207;-77
2023/06/03 09:18:38;;;;;;;1.57;1.47;;;17.20;77.80;;;;;;5065967;28;20303;-76
2023/06/03 09:21:09;;;;;;;1.80;1.23;;;17.20;78.40;;;;;;5065672;28;20208;-76
2023/06/03 09:23:38;;;;;;;2.60;1.53;;;17.20;76.20;;;;;;5065604;28;20706;-76
2023/06/03 09:26:06;;;;;;;1.97;1.50;;;17.20;76.30;;;;;;5053652;28;20638;-77
2023/06/03 09:28:34;;;;;;;4.67;1.10;;;17.30;75.30;;;;;;5052896;28;20280;-76
2023/06/03 09:31:01;;;;;;;1.23;1.00;;;17.30;76.50;;;;;;5066019;28;20218;-76
2023/06/03 09:33:28;;;;;;;3.63;1.20;;;17.40;75.30;;;;;;5066061;28;20202;-76
2023/06/03 09:36:12;;;;;;;8.43;1.80;;;17.40;74.70;;;;;;5065414;28;20239;-76
2023/06/03 09:38:50;;;;;;;2.23;1.33;;;17.40;76.10;;;;;;5066016;28;20833;-76
2023/06/03 09:41:17;;;;;;;5.67;1.30;;;17.60;75.00;;;;;;5065775;28;20249;-76
2023/06/03 09:43:56;;;;;;;5.57;1.53;;;17.60;76.00;;;;;;5065740;28;21022;-77
2023/06/03 09:46:25;;;;;;;2.47;1.23;;;17.80;75.90;;;;;;5073560;28;20229;-77
2023/06/03 09:48:52;;;;;;;2.43;1.20;;;17.80;75.60;;;;;;5066689;28;20294;-77
2023/06/03 09:51:20;;;;;;;1.83;1.50;;;17.90;75.90;;;;;;5065394;28;20303;-76
2023/06/03 09:53:47;;;;;;;1.20;1.10;;;17.90;75.40;;;;;;5058494;28;20197;-76
2023/06/03 09:56:25;;;;;;;4.73;1.47;;;18.00;74.60;;;;;;5065489;28;20773;-77
2023/06/03 09:58:53;;;;;;;1.73;1.40;;;18.10;73.90;;;;;;5057775;28;20490;-76
2023/06/03 10:01:31;;;;;;;1.97;1.60;;;18.10;73.30;;;;;;5065306;28;20235;-76
2023/06/03 10:03:59;;;;;;;4.57;1.33;;;18.20;74.50;;;;;;5065753;28;20564;-76
2023/06/03 10:06:28;;;;;;;2.03;1.23;;;18.30;74.80;;;;;;5065624;28;20265;-76
2023/06/03 10:08:55;;;;;;;2.63;1.57;;;18.40;73.60;;;;;;5065763;28;20207;-77
2023/06/03 10:11:23;;;;;;;36.60;4.03;;;18.40;70.50;;;;;;5065616;28;20795;-76
2023/06/03 10:14:04;;;;;;;5.00;1.70;;;18.50;71.70;;;;;;5065640;28;20721;-76
2023/06/03 10:16:31;;;;;;;3.77;1.40;;;18.60;72.00;;;;;;5065342;28;20210;-77
2023/06/03 10:18:58;;;;;;;4.50;1.20;;;18.70;72.20;;;;;;5065655;28;20219;-77
2023/06/03 10:21:29;;;;;;;5.23;1.20;;;18.70;70.60;;;;;;5065592;28;20311;-76
2023/06/03 10:23:59;;;;;;;2.63;1.33;;;18.90;71.40;;;;;;5060779;28;20306;-77
2023/06/03 10:26:27;;;;;;;3.50;1.20;;;18.90;71.40;;;;;;5065849;28;20657;-77
2023/06/03 10:28:55;;;;;;;3.77;1.20;;;18.90;70.30;;;;;;5067447;28;20196;-77
2023/06/03 10:31:24;;;;;;;2.13;1.27;;;19.00;70.50;;;;;;5069348;28;20796;-77
2023/06/03 10:33:51;;;;;;;2.20;1.30;;;19.10;71.90;;;;;;5069495;28;20201;-77
2023/06/03 10:36:20;;;;;;;32.43;4.37;;;19.30;71.70;;;;;;5068420;28;20233;-76
2023/06/03 10:38:49;;;;;;;3.43;1.47;;;19.50;72.20;;;;;;5052853;28;20207;-77
2023/06/03 10:41:17;;;;;;;1.27;1.17;;;19.70;70.90;;;;;;5047684;28;20223;-76
2023/06/03 10:43:46;;;;;;;4.70;1.27;;;19.80;70.50;;;;;;5072679;28;20211;-77
2023/06/03 10:46:14;;;;;;;1.88;1.38;;;20.00;69.40;;;;;;5066530;28;20218;-78
2023/06/03 10:48:44;;;;;;;1.60;1.50;;;20.10;68.90;;;;;;5066084;28;20214;-77
2023/06/03 10:51:24;;;;;;;1.58;1.25;;;20.30;67.90;;;;;;5067614;28;20196;-77
2023/06/03 10:54:14;;;;;;;2.67;1.40;;;20.30;67.50;;;;;;5067665;28;20207;-78
2023/06/03 10:56:48;;;;;;;1.42;1.33;;;20.40;67.20;;;;;;5067599;28;20261;-77
2023/06/03 10:59:20;;;;;;;4.40;1.73;;;20.50;66.90;;;;;;5068161;28;20298;-77
2023/06/03 11:01:58;;;;;;;6.85;1.70;;;20.40;66.10;;;;;;5067475;28;20291;-77
2023/06/03 11:04:26;;;;;;;3.78;1.45;;;20.40;65.70;;;;;;5058362;28;20658;-77
2023/06/03 11:06:53;;;;;;;1.10;1.00;;;20.60;67.70;;;;;;5053423;28;20204;-77
2023/06/03 11:09:34;;;;;;;2.38;1.40;;;20.60;66.90;;;;;;5064661;28;20235;-77
2023/06/03 11:12:12;;;;;;;6.22;1.20;;;20.80;66.40;;;;;;5046891;28;20670;-77
2023/06/03 11:14:56;;;;;;;2.45;1.38;;;20.90;66.10;;;;;;5046988;28;20224;-78
2023/06/03 11:17:27;;;;;;;1.20;1.10;;;21.10;67.30;;;;;;5062703;28;20203;-78
2023/06/03 11:19:55;;;;;;;1.40;1.30;;;21.20;66.40;;;;;;5067782;28;20223;-77
2023/06/03 11:22:42;;;;;;;2.58;1.20;;;21.40;65.40;;;;;;5068735;28;20215;-77
2023/06/03 11:25:28;;;;;;;1.80;1.10;;;21.70;65.30;;;;;;5068716;28;20207;-77
2023/06/03 11:28:25;;;;;;;4.57;1.73;;;21.70;64.80;;;;;;5049949;28;20696;-74
2023/06/03 11:30:55;;;;;;;9.75;1.25;;;21.80;64.20;;;;;;5065448;28;20238;-75
2023/06/03 11:33:22;;;;;;;3.15;1.50;;;22.10;65.30;;;;;;5069030;28;20960;-75
2023/06/03 11:35:51;;;;;;;3.90;1.40;;;22.20;64.30;;;;;;5068354;28;20289;-78
2023/06/03 11:38:18;;;;;;;3.08;1.48;;;22.20;63.90;;;;;;5068741;28;20231;-77
2023/06/03 11:40:46;;;;;;;3.33;1.48;;;22.30;63.20;;;;;;5064076;28;20295;-77
2023/06/03 11:43:13;;;;;;;3.78;1.50;;;22.50;64.30;;;;;;5067392;28;20289;-78
2023/06/03 11:45:40;;;;;;;3.03;1.35;;;22.60;64.30;;;;;;5068133;28;20210;-75
2023/06/03 11:48:09;;;;;;;4.22;1.50;;;22.70;64.00;;;;;;5068654;28;20303;-75
2023/06/03 11:50:47;;;;;;;7.05;1.50;;;22.80;64.30;;;;;;5068250;28;20617;-75
2023/06/03 11:53:30;;;;;;;2.25;1.73;;;22.90;62.40;;;;;;5068693;28;20290;-75
2023/06/03 11:56:09;;;;;;;1.58;1.30;;;22.90;60.00;;;;;;5068581;28;20318;-75
2023/06/03 11:58:38;;;;;;;14.95;2.63;;;22.80;60.80;;;;;;5052289;28;20191;-75
2023/06/03 12:01:08;;;;;;;16.10;2.08;;;23.00;62.60;;;;;;5068228;28;20247;-75
2023/06/03 12:03:36;;;;;;;1.55;1.13;;;23.20;62.30;;;;;;5068608;28;20204;-75
2023/06/03 12:06:04;;;;;;;2.75;1.30;;;23.40;63.00;;;;;;5068245;28;20206;-77
2023/06/03 12:08:47;;;;;;;4.63;1.50;;;23.60;63.00;;;;;;5068523;28;20207;-75
2023/06/03 12:11:29;;;;;;;6.28;1.65;;;23.80;62.00;;;;;;5066179;28;20218;-75
2023/06/03 12:13:57;;;;;;;2.17;1.30;;;23.90;60.40;;;;;;5067978;28;20556;-77
2023/06/03 12:16:28;;;;;;;3.47;1.80;;;24.00;60.10;;;;;;5067766;28;20306;-76
2023/06/03 12:18:55;;;;;;;3.45;1.50;;;24.00;59.80;;;;;;5067721;28;20319;-76
2023/06/03 12:21:22;;;;;;;3.03;1.52;;;24.10;60.80;;;;;;5068005;28;20205;-76
2023/06/03 12:23:49;;;;;;;1.35;1.30;;;24.30;60.40;;;;;;5067621;28;20210;-75
2023/06/03 12:26:17;;;;;;;2.67;1.50;;;24.50;59.20;;;;;;5067633;28;20630;-76
2023/06/03 12:28:49;;;;;;;4.13;1.30;;;24.50;59.00;;;;;;5067692;28;20284;-75
2023/06/03 12:31:18;;;;;;;1.77;1.25;;;24.50;59.40;;;;;;5067377;28;20280;-75
2023/06/03 12:33:45;;;;;;;5.18;1.90;;;24.60;60.60;;;;;;5067309;28;20238;-76
2023/06/03 12:36:14;;;;;;;6.47;1.63;;;24.60;59.10;;;;;;5066858;28;20895;-75
2023/06/03 12:38:54;;;;;;;2.47;1.33;;;24.60;58.50;;;;;;5067146;28;20218;-75
2023/06/03 12:41:22;;;;;;;1.73;1.58;;;24.70;59.20;;;;;;5066633;28;20370;-75
2023/06/03 12:43:58;;;;;;;2.92;1.38;;;24.90;58.20;;;;;;5067458;28;20288;-76
2023/06/03 12:46:25;;;;;;;4.00;1.52;;;24.90;58.10;;;;;;5067574;28;20234;-75
2023/06/03 12:48:56;;;;;;;2.67;1.23;;;25.00;58.70;;;;;;5067104;28;20213;-77
2023/06/03 12:51:24;;;;;;;4.05;1.40;;;25.20;57.60;;;;;;5066711;28;20195;-76
2023/06/03 12:53:55;;;;;;;6.88;1.92;;;25.20;58.00;;;;;;5067294;28;20565;-75
2023/06/03 12:56:23;;;;;;;5.47;1.80;;;25.30;58.80;;;;;;5066879;28;20227;-78